Time;durP1;ratioP1;P1;durP2;ratioP2;P2;SDS_P1;SDS_P2;PMS_P1;PMS_P2;Temp;Humidity;BMP_temperature;BMP_pressure;BME280_temperature;BME280_humidity;BME280_pressure;Samples;Min_cycle;Max_cycle;Signal;HPM_P1;HPM_P2
2023/09/02 00:01:47;;;;;;;3.50;1.30;;;;;;;14.56;100.00;96057.88;4995165;28;24437;-72
2023/09/02 00:04:13;;;;;;;1.90;1.10;;;;;;;14.54;100.00;96057.19;5000797;28;24460;-73
2023/09/02 00:06:40;;;;;;;3.13;1.10;;;;;;;14.53;100.00;96063.31;5002295;28;24796;-73
2023/09/02 00:09:06;;;;;;;2.90;1.45;;;;;;;14.48;100.00;96062.81;4997609;28;24444;-72
2023/09/02 00:11:33;;;;;;;2.65;1.38;;;;;;;14.39;100.00;96064.31;5011868;28;24443;-72
2023/09/02 00:13:59;;;;;;;6.40;1.25;;;;;;;14.33;100.00;96072.59;5013073;28;24432;-73
2023/09/02 00:16:26;;;;;;;3.17;1.35;;;;;;;14.29;100.00;96071.97;5004134;28;24444;-73
2023/09/02 00:18:54;;;;;;;10.93;1.25;;;;;;;14.30;100.00;96070.19;4993668;28;24987;-72
2023/09/02 00:21:20;;;;;;;5.43;1.30;;;;;;;14.29;100.00;96066.75;5009521;28;24436;-72
2023/09/02 00:23:47;;;;;;;2.25;0.90;;;;;;;14.29;100.00;96071.97;4996734;28;24445;-72
2023/09/02 00:26:13;;;;;;;1.90;1.13;;;;;;;14.29;100.00;96071.97;5006126;28;24448;-74
2023/09/02 00:28:40;;;;;;;2.67;1.00;;;;;;;14.30;100.00;96064.97;5003754;28;24440;-72
2023/09/02 00:31:06;;;;;;;4.82;1.38;;;;;;;14.29;100.00;96065.94;5008658;28;24440;-73
2023/09/02 00:33:33;;;;;;;3.20;1.40;;;;;;;14.35;100.00;96062.03;5006861;28;25010;-72
2023/09/02 00:36:00;;;;;;;5.65;1.17;;;;;;;14.33;100.00;96067.38;4998172;28;25006;-73
2023/09/02 00:38:27;;;;;;;6.10;1.30;;;;;;;14.22;100.00;96065.53;5012583;28;24444;-72
2023/09/02 00:41:00;;;;;;;2.25;1.27;;;;;;;14.11;100.00;96070.69;5001190;28;24440;-73
2023/09/02 00:43:28;;;;;;;1.40;1.13;;;;;;;14.11;100.00;96069.88;5005655;28;24843;-72
2023/09/02 00:45:54;;;;;;;2.60;1.00;;;;;;;14.03;100.00;96065.22;5009029;28;24441;-73
2023/09/02 00:48:22;;;;;;;2.45;1.10;;;;;;;13.95;100.00;96064.94;4993309;28;24437;-73
2023/09/02 00:50:48;;;;;;;1.90;1.23;;;;;;;13.98;100.00;96065.56;4997405;28;24436;-74
2023/09/02 00:53:18;;;;;;;2.45;1.20;;;;;;;14.06;100.00;96069.38;5006699;28;24440;-73
2023/09/02 00:55:45;;;;;;;3.13;1.40;;;;;;;14.02;100.00;96063.56;5012084;28;24959;-73
2023/09/02 00:58:12;;;;;;;2.17;1.30;;;;;;;14.02;100.00;96068.78;5007237;28;24437;-73
2023/09/02 01:00:39;;;;;;;2.38;1.30;;;;;;;13.91;100.00;96066.94;5002198;28;24455;-74
2023/09/02 01:03:06;;;;;;;3.10;1.48;;;;;;;13.85;100.00;96066.53;5012054;28;24999;-73
2023/09/02 01:05:33;;;;;;;2.42;1.40;;;;;;;13.69;100.00;96070.22;5011673;28;24452;-74
2023/09/02 01:08:01;;;;;;;2.05;1.30;;;;;;;13.66;100.00;96065.22;4993280;28;24460;-74
2023/09/02 01:10:30;;;;;;;2.00;1.30;;;;;;;13.66;100.00;96065.22;4999868;28;24959;-72
2023/09/02 01:12:57;;;;;;;1.47;1.13;;;;;;;13.70;100.00;96064.06;5001288;28;24809;-70
2023/09/02 01:15:23;;;;;;;2.87;1.33;;;;;;;13.78;100.00;96069.56;4992444;28;24976;-71
2023/09/02 01:17:50;;;;;;;2.00;1.42;;;;;;;13.72;100.00;96064.81;4992609;28;24452;-71
2023/09/02 01:20:19;;;;;;;1.67;0.98;;;;;;;13.71;100.00;96063.13;4997222;28;24440;-71
2023/09/02 01:23:18;;;;;;;1.60;1.17;;;;;;;13.66;100.00;96070.44;5009592;28;24444;-72
2023/09/02 01:26:02;;;;;;;1.20;1.10;;;;;;;13.66;100.00;96075.63;4978543;28;25003;-72
2023/09/02 01:28:32;;;;;;;1.35;0.90;;;;;;;13.68;100.00;96080.72;4992377;28;24466;-71
2023/09/02 01:31:01;;;;;;;1.67;1.17;;;;;;;13.75;100.00;96074.16;4992949;28;24441;-71
2023/09/02 01:33:28;;;;;;;1.70;1.23;;;;;;;13.78;100.00;96074.75;5007407;28;24444;-71
2023/09/02 01:35:58;;;;;;;1.20;1.10;;;;;;;13.78;100.00;96072.16;4995272;28;24440;-71
2023/09/02 01:38:27;;;;;;;14.63;1.40;;;;;;;13.82;100.00;96077.16;5006012;28;25013;-71
2023/09/02 01:40:55;;;;;;;9.45;1.40;;;;;;;13.88;100.00;96071.53;5011801;28;24432;-74
2023/09/02 01:43:23;;;;;;;2.05;1.20;;;;;;;13.90;100.00;96073.06;4998080;28;24432;-74
2023/09/02 01:45:52;;;;;;;2.00;0.80;;;;;;;13.85;100.00;96074.34;4993416;28;24452;-73
2023/09/02 01:48:19;;;;;;;2.85;1.10;;;;;;;13.85;100.00;96077.78;5011656;28;24436;-73
2023/09/02 01:50:47;;;;;;;3.03;1.10;;;;;;;13.83;100.00;96076.22;5003570;28;24448;-73
2023/09/02 01:53:14;;;;;;;1.67;1.00;;;;;;;13.69;100.00;96082.41;5004356;28;24440;-73
2023/09/02 01:55:42;;;;;;;2.05;1.15;;;;;;;13.54;100.00;96077.34;4996329;28;24437;-74
2023/09/02 01:58:09;;;;;;;3.00;1.30;;;;;;;13.52;100.00;96078.38;5010829;28;24452;-71
2023/09/02 02:00:35;;;;;;;2.72;1.23;;;;;;;13.38;100.00;96075.88;5009483;28;24435;-71
2023/09/02 02:03:05;;;;;;;2.87;1.67;;;;;;;13.45;100.00;96079.72;5010843;28;25197;-71
2023/09/02 02:05:36;;;;;;;4.70;1.40;;;;;;;13.44;100.00;96078.06;5010598;28;24778;-71
2023/09/02 02:08:09;;;;;;;3.78;1.70;;;;;;;13.40;100.00;96084.44;5001881;28;24446;-71
2023/09/02 02:10:38;;;;;;;3.95;1.50;;;;;;;13.34;100.00;96079.63;5000299;28;25006;-71
2023/09/02 02:13:06;;;;;;;4.27;1.47;;;;;;;13.27;100.00;96084.41;5005568;28;24994;-71
2023/09/02 02:15:32;;;;;;;2.28;1.58;;;;;;;13.22;100.00;96081.28;5010380;28;24445;-71
2023/09/02 02:17:59;;;;;;;3.35;1.55;;;;;;;13.21;100.00;96083.06;5003637;28;25027;-71
2023/09/02 02:20:33;;;;;;;2.00;1.48;;;;;;;13.22;100.00;96089.09;4999009;28;24437;-71
2023/09/02 02:22:59;;;;;;;1.63;1.30;;;;;;;13.28;100.00;96084.34;4992427;28;24463;-71
2023/09/02 02:25:26;;;;;;;3.22;1.30;;;;;;;13.35;100.00;96089.97;5007541;28;24978;-71
2023/09/02 02:27:52;;;;;;;1.95;1.30;;;;;;;13.34;100.00;96087.44;4995939;28;24846;-71
2023/09/02 02:30:19;;;;;;;1.30;1.10;;;;;;;13.38;100.00;96088.88;5003539;28;24440;-70
2023/09/02 02:32:46;;;;;;;1.60;1.00;;;;;;;13.40;100.00;96087.84;4991247;28;24468;-71
2023/09/02 02:35:13;;;;;;;2.42;0.95;;;;;;;13.38;100.00;96086.28;4991163;28;24437;-71
2023/09/02 02:37:41;;;;;;;2.03;1.27;;;;;;;13.31;100.00;96091.94;5008085;28;24437;-71
2023/09/02 02:40:08;;;;;;;3.65;1.20;;;;;;;13.31;100.00;96099.75;5004960;28;24436;-71
2023/09/02 02:42:35;;;;;;;3.33;1.20;;;;;;;13.29;100.00;96096.41;4990956;28;24452;-70
2023/09/02 02:45:01;;;;;;;3.00;1.35;;;;;;;13.27;100.00;96087.88;4991316;28;25015;-71
2023/09/02 02:47:28;;;;;;;2.40;1.20;;;;;;;13.23;100.00;96089.00;5004096;28;24801;-71
2023/09/02 02:49:54;;;;;;;2.13;1.20;;;;;;;13.24;100.00;96089.84;5003413;28;24433;-71
2023/09/02 02:52:21;;;;;;;1.73;1.23;;;;;;;13.26;100.00;96099.19;5005903;28;24506;-71
2023/09/02 02:54:49;;;;;;;3.40;1.10;;;;;;;13.20;100.00;96091.81;5006592;28;25047;-71
2023/09/02 02:57:15;;;;;;;2.15;1.10;;;;;;;13.16;100.00;96089.50;5004199;28;24444;-70
2023/09/02 02:59:42;;;;;;;2.23;1.13;;;;;;;13.16;100.00;96089.50;4999382;28;24444;-71
2023/09/02 03:02:08;;;;;;;1.10;1.00;;;;;;;13.15;100.00;96088.66;5010028;28;24432;-71
2023/09/02 03:04:35;;;;;;;2.80;1.10;;;;;;;13.11;100.00;96084.59;5005040;28;24455;-71
2023/09/02 03:07:01;;;;;;;1.83;1.25;;;;;;;13.14;100.00;96080.97;5001489;28;24510;-71
2023/09/02 03:09:28;;;;;;;2.10;1.20;;;;;;;13.08;100.00;96090.00;5000831;28;24433;-71
2023/09/02 03:11:57;;;;;;;5.32;1.48;;;;;;;12.99;100.00;96095.84;5000399;28;25017;-71
2023/09/02 03:14:24;;;;;;;1.98;1.30;;;;;;;12.92;100.00;96103.22;5000772;28;24437;-72
2023/09/02 03:16:51;;;;;;;2.63;1.38;;;;;;;13.00;100.00;96100.09;4999657;28;24436;-71
2023/09/02 03:19:17;;;;;;;2.77;1.20;;;;;;;12.96;100.00;96094.28;5001598;28;24440;-71
2023/09/02 03:21:44;;;;;;;3.13;1.20;;;;;;;12.95;100.00;96091.78;5003973;28;24433;-71
2023/09/02 03:24:10;;;;;;;4.03;1.45;;;;;;;12.96;100.00;96094.28;5002487;28;24436;-71
2023/09/02 03:26:37;;;;;;;2.13;1.33;;;;;;;12.87;100.00;96096.66;5003978;28;24815;-71
2023/09/02 03:29:05;;;;;;;2.83;1.30;;;;;;;12.80;100.00;96096.25;5002100;28;24433;-71
2023/09/02 03:31:31;;;;;;;3.00;1.25;;;;;;;12.82;100.00;96099.56;4999713;28;24459;-71
2023/09/02 03:33:57;;;;;;;2.43;0.97;;;;;;;12.79;100.00;96102.34;4994410;28;24437;-71
2023/09/02 03:36:24;;;;;;;1.38;1.00;;;;;;;12.77;100.00;96104.25;5045796;23;24440;-71
2023/09/02 03:38:50;;;;;;;6.13;1.00;;;;;;;12.74;100.00;96100.06;4994012;28;24440;-74
2023/09/02 03:41:18;;;;;;;5.10;1.20;;;;;;;12.72;100.00;96111.50;4994781;28;24444;-74
2023/09/02 03:43:44;;;;;;;3.17;1.20;;;;;;;12.70;100.00;96103.81;4994576;28;24497;-74
2023/09/02 03:46:13;;;;;;;2.40;1.20;;;;;;;12.71;100.00;96105.47;4994242;28;24448;-74
2023/09/02 03:48:40;;;;;;;1.20;0.80;;;;;;;12.74;100.00;96102.66;4978391;28;24433;-73
2023/09/02 03:51:11;;;;;;;3.30;1.00;;;;;;;12.62;100.00;96100.88;4989074;28;24457;-73
2023/09/02 03:53:38;;;;;;;1.02;0.93;;;;;;;12.57;100.00;96106.38;4974911;28;24437;-73
2023/09/02 03:56:05;;;;;;;6.43;1.00;;;;;;;12.47;100.00;96107.09;4985545;28;24430;-73
2023/09/02 03:58:32;;;;;;;4.50;0.82;;;;;;;12.40;100.00;96111.84;4980965;28;24440;-74
2023/09/02 04:00:59;;;;;;;4.18;0.98;;;;;;;12.27;100.00;96101.41;4979507;28;24801;-73
2023/09/02 04:03:27;;;;;;;5.63;0.93;;;;;;;12.40;100.00;96104.03;4974597;28;24440;-74
2023/09/02 04:05:54;;;;;;;1.27;0.85;;;;;;;12.42;100.00;96104.78;4974547;28;24461;-74
2023/09/02 04:08:25;;;;;;;2.07;0.83;;;;;;;12.34;100.00;96105.25;4974210;28;24457;-73
2023/09/02 04:10:52;;;;;;;2.90;0.85;;;;;;;12.32;100.00;96106.31;4980724;28;24447;-74
2023/09/02 04:13:19;;;;;;;1.10;0.80;;;;;;;12.36;100.00;96110.38;4981977;28;24437;-75
2023/09/02 04:15:46;;;;;;;2.08;0.88;;;;;;;12.43;100.00;96110.81;4989177;28;24935;-74
2023/09/02 04:18:12;;;;;;;1.92;0.90;;;;;;;12.43;100.00;96110.81;4976379;28;24449;-75
2023/09/02 04:20:41;;;;;;;5.28;1.05;;;;;;;12.42;100.00;96104.78;4980030;28;24524;-73
2023/09/02 04:23:07;;;;;;;2.05;0.90;;;;;;;12.42;100.00;96107.38;4987521;28;24456;-75
2023/09/02 04:25:34;;;;;;;2.15;0.98;;;;;;;12.41;100.00;96107.47;4992160;28;24972;-75
2023/09/02 04:28:00;;;;;;;2.67;1.10;;;;;;;12.31;100.00;96108.06;4973114;28;24441;-75
2023/09/02 04:30:27;;;;;;;1.30;0.93;;;;;;;12.32;100.00;96106.31;4972263;28;24424;-75
2023/09/02 04:32:53;;;;;;;1.30;0.98;;;;;;;12.33;100.00;96114.00;4972427;28;24444;-76
2023/09/02 04:35:20;;;;;;;0.80;0.80;;;;;;;12.39;100.00;96117.97;4972295;28;24433;-75
2023/09/02 04:37:48;;;;;;;1.95;1.10;;;;;;;12.41;100.00;96112.66;4975939;28;24441;-74
2023/09/02 04:40:14;;;;;;;1.70;0.90;;;;;;;12.33;100.00;96105.38;4992839;28;24448;-74
2023/09/02 04:42:41;;;;;;;1.75;1.15;;;;;;;12.23;100.00;96107.72;4983264;28;24488;-74
2023/09/02 04:45:09;;;;;;;3.35;1.70;;;;;;;12.24;100.00;96117.19;4974285;28;24449;-75
2023/09/02 04:47:35;;;;;;;3.58;1.75;;;;;;;12.28;100.00;96116.06;4990039;28;24445;-75
2023/09/02 04:50:03;;;;;;;3.20;1.70;;;;;;;12.30;100.00;96115.94;4973745;28;25096;-75
2023/09/02 04:52:30;;;;;;;2.20;1.33;;;;;;;12.34;100.00;96117.41;4974808;28;24433;-75
2023/09/02 04:54:58;;;;;;;4.17;1.70;;;;;;;12.39;100.00;96127.53;4973993;28;24437;-75
2023/09/02 04:57:24;;;;;;;2.85;1.77;;;;;;;12.44;100.00;96128.88;4973614;28;24469;-75
2023/09/02 04:59:51;;;;;;;1.63;1.13;;;;;;;12.46;100.00;96128.78;4975832;28;24830;-75
2023/09/02 05:02:17;;;;;;;5.43;1.50;;;;;;;12.39;100.00;96125.75;4980395;28;24440;-75
2023/09/02 05:04:44;;;;;;;2.97;1.38;;;;;;;12.24;100.00;96132.78;4990343;28;24436;-74
2023/09/02 05:07:10;;;;;;;3.00;1.45;;;;;;;12.31;100.00;96135.78;4992292;28;24448;-74
2023/09/02 05:09:37;;;;;;;10.75;1.45;;;;;;;12.27;100.00;96136.91;4989502;28;24520;-75
2023/09/02 05:12:05;;;;;;;1.15;1.00;;;;;;;12.33;100.00;96133.94;4986193;28;24440;-75
2023/09/02 05:14:32;;;;;;;1.80;1.30;;;;;;;12.34;100.00;96133.00;4980266;28;25026;-74
2023/09/02 05:16:58;;;;;;;2.73;1.30;;;;;;;12.47;100.00;96133.06;4993370;28;24475;-74
2023/09/02 05:19:25;;;;;;;2.25;1.42;;;;;;;12.59;100.00;96142.66;4992402;28;24441;-74
2023/09/02 05:21:52;;;;;;;1.85;1.35;;;;;;;12.72;100.00;96135.75;4992705;28;24950;-75
2023/09/02 05:24:18;;;;;;;2.70;1.73;;;;;;;12.78;100.00;96142.28;4976423;28;24436;-74
2023/09/02 05:26:45;;;;;;;3.07;1.63;;;;;;;12.68;100.00;96136.88;4992677;28;24468;-74
2023/09/02 05:29:12;;;;;;;2.97;1.77;;;;;;;12.74;100.00;96148.63;4992629;28;24432;-74
2023/09/02 05:31:39;;;;;;;2.37;1.40;;;;;;;12.78;100.00;96144.88;4992957;28;25040;-74
2023/09/02 05:34:05;;;;;;;2.13;1.33;;;;;;;12.92;100.00;96144.81;4992712;28;24413;-74
2023/09/02 05:36:32;;;;;;;2.75;1.30;;;;;;;13.01;100.00;96145.97;4992717;28;24428;-75
2023/09/02 05:38:58;;;;;;;3.45;0.93;;;;;;;13.02;100.00;96145.06;4991803;28;24428;-74
2023/09/02 05:41:25;;;;;;;1.77;0.80;;;;;;;13.09;100.00;96146.31;4992548;28;24421;-74
2023/09/02 05:43:51;;;;;;;1.23;0.73;;;;;;;13.17;100.00;96145.78;4992842;28;24432;-74
2023/09/02 05:46:19;;;;;;;2.30;1.10;;;;;;;13.27;100.00;96155.50;4992332;28;24921;-74
2023/09/02 05:48:46;;;;;;;1.25;0.80;;;;;;;13.22;100.00;96160.13;4991992;28;24424;-74
2023/09/02 05:51:12;;;;;;;3.88;0.90;;;;;;;13.19;100.00;96162.09;4992341;28;24419;-75
2023/09/02 05:53:39;;;;;;;2.35;1.08;;;;;;;13.09;100.00;96167.13;4992162;28;24912;-74
2023/09/02 05:56:05;;;;;;;1.75;1.00;;;;;;;13.05;100.00;96165.63;4992248;28;24424;-75
2023/09/02 05:58:31;;;;;;;4.10;0.98;;;;;;;13.02;100.00;96164.06;4992501;28;24418;-75
2023/09/02 06:01:03;;;;;;;1.50;0.80;;;;;;;13.13;100.00;96165.97;4992013;28;24421;-74
2023/09/02 06:03:31;;;;;;;0.85;0.80;;;;;;;13.12;100.00;96161.69;4992042;28;24964;-76
2023/09/02 06:05:58;;;;;;;1.92;0.80;;;;;;;13.23;100.00;96163.56;4991942;28;24448;-74
2023/09/02 06:08:24;;;;;;;1.70;0.80;;;;;;;13.29;100.00;96163.19;4992087;28;24416;-75
2023/09/02 06:10:58;;;;;;;2.50;0.80;;;;;;;13.49;100.00;96164.44;5000886;28;24800;-75
2023/09/02 06:13:24;;;;;;;1.17;0.90;;;;;;;13.72;100.00;96160.25;5011815;28;24423;-75
2023/09/02 06:15:51;;;;;;;1.02;0.80;;;;;;;14.01;100.00;96171.25;5011532;28;24420;-75
2023/09/02 06:18:17;;;;;;;1.20;0.70;;;;;;;14.28;100.00;96160.69;5011451;28;24424;-76
2023/09/02 06:20:45;;;;;;;1.40;1.00;;;;;;;14.47;100.00;96163.63;5011101;28;24436;-76
2023/09/02 06:23:12;;;;;;;1.45;1.00;;;;;;;14.60;100.00;96160.16;5011570;28;24420;-76
2023/09/02 06:25:38;;;;;;;1.52;1.17;;;;;;;14.87;100.00;96175.53;5011388;28;24994;-76
2023/09/02 06:28:05;;;;;;;4.05;1.80;;;;;;;15.03;100.00;96167.44;5011241;28;24427;-76
2023/09/02 06:30:32;;;;;;;3.05;1.60;;;;;;;14.93;100.00;96165.50;5006170;28;24449;-76
2023/09/02 06:32:58;;;;;;;3.40;1.38;;;;;;;14.88;100.00;96169.41;4974532;28;24441;-77
2023/09/02 06:35:25;;;;;;;2.10;1.30;;;;;;;14.88;100.00;96180.66;4977634;28;24441;-77
2023/09/02 06:37:52;;;;;;;5.28;1.45;;;;;;;14.79;100.00;96178.72;4978498;28;24444;-75
2023/09/02 06:40:19;;;;;;;1.73;1.20;;;;;;;15.03;100.00;96181.31;4991322;28;24437;-74
2023/09/02 06:42:45;;;;;;;2.60;1.65;;;;;;;15.17;100.00;96168.09;4991536;28;24963;-75
2023/09/02 06:45:12;;;;;;;3.20;1.20;;;;;;;15.21;100.00;96176.50;4991701;28;24413;-76
2023/09/02 06:47:38;;;;;;;2.00;1.30;;;;;;;15.28;100.00;96176.84;4990334;28;24420;-76
2023/09/02 06:50:06;;;;;;;2.25;1.20;;;;;;;15.33;100.00;96180.81;4991006;28;24428;-77
2023/09/02 06:52:32;;;;;;;16.50;4.68;;;;;;;15.35;100.00;96175.47;4982040;28;24496;-77
2023/09/02 06:55:00;;;;;;;11.50;2.70;;;;;;;15.41;100.00;96172.41;4973829;28;24433;-76
2023/09/02 06:57:27;;;;;;;4.28;1.65;;;;;;;15.52;100.00;96180.25;4971946;28;24442;-76
2023/09/02 06:59:53;;;;;;;5.40;1.85;;;;;;;15.84;100.00;96177.00;4987034;28;24449;-77
2023/09/02 07:02:20;;;;;;;13.82;3.45;;;;;;;16.00;100.00;96180.06;4971755;28;25022;-77
2023/09/02 07:04:48;;;;;;;4.60;1.95;;;;;;;16.12;100.00;96184.31;4971933;28;24409;-76
2023/09/02 07:07:15;;;;;;;7.28;1.98;;;;;;;16.31;100.00;96186.31;4984413;28;25015;-76
2023/09/02 07:09:41;;;;;;;3.33;1.50;;;;;;;16.66;100.00;96187.91;4990983;28;24448;-73
2023/09/02 07:12:09;;;;;;;2.33;1.70;;;;;;;17.13;100.00;96189.31;4990778;28;24440;-76
2023/09/02 07:14:36;;;;;;;2.05;1.50;;;;;;;17.39;100.00;96188.91;4979895;28;24445;-74
2023/09/02 07:17:02;;;;;;;2.03;1.42;;;;;;;17.67;100.00;96193.50;4986414;28;24994;-76
2023/09/02 07:19:29;;;;;;;2.25;1.38;;;;;;;18.02;100.00;96192.34;4990872;28;24440;-75
2023/09/02 07:21:57;;;;;;;2.50;1.60;;;;;;;18.33;100.00;96202.81;4991047;28;24973;-75
2023/09/02 07:24:23;;;;;;;2.85;1.70;;;;;;;18.56;100.00;96206.84;4991072;28;24444;-74
2023/09/02 07:26:50;;;;;;;4.88;1.70;;;;;;;18.66;100.00;96206.06;4981107;28;24520;-75
2023/09/02 07:29:18;;;;;;;3.25;1.52;;;;;;;18.69;100.00;96206.63;4984588;28;24444;-73
2023/09/02 07:31:44;;;;;;;2.40;1.70;;;;;;;18.57;100.00;96208.50;4974521;28;24801;-74
2023/09/02 07:34:11;;;;;;;2.78;1.42;;;;;;;18.68;100.00;96214.59;4971727;28;24453;-73
2023/09/02 07:36:37;;;;;;;2.47;1.48;;;;;;;18.89;100.00;96212.75;4976385;28;24434;-74
2023/09/02 07:39:04;;;;;;;1.70;1.23;;;;;;;19.20;100.00;96223.13;4981302;28;25000;-74
2023/09/02 07:41:31;;;;;;;3.15;1.40;;;;;;;19.44;100.00;96207.78;4990542;28;24433;-74
2023/09/02 07:43:58;;;;;;;1.73;1.40;;;;;;;19.79;100.00;96212.41;4989345;28;25057;-75
2023/09/02 07:46:26;;;;;;;1.63;1.17;;;;;;;19.98;100.00;96214.16;4990545;28;24468;-73
2023/09/02 07:48:52;;;;;;;3.55;1.25;;;;;;;20.20;100.00;96215.59;4982142;28;24445;-75
2023/09/02 07:51:19;;;;;;;2.42;1.45;;;;;;;20.24;100.00;96216.16;4973483;28;25003;-74
2023/09/02 07:53:45;;;;;;;3.40;1.70;;;;;;;20.44;100.00;96217.72;4985913;28;24437;-75
2023/09/02 07:56:12;;;;;;;2.05;1.48;;;;;;;20.37;100.00;96214.03;4980039;28;24444;-73
2023/09/02 07:58:38;;;;;;;2.28;1.45;;;;;;;20.27;100.00;96210.59;4971964;28;24456;-72
2023/09/02 08:01:05;;;;;;;2.63;1.60;;;;;;;20.35;100.00;96213.31;4989618;28;24440;-72
2023/09/02 08:03:33;;;;;;;2.92;1.88;;;;;;;20.57;100.00;96219.22;4980463;28;24437;-75
2023/09/02 08:06:05;;;;;;;2.22;1.50;;;;;;;20.58;100.00;96221.72;4989176;28;24523;-73
2023/09/02 08:08:31;;;;;;;5.10;1.58;;;;;;;20.21;100.00;96219.91;4977715;28;24434;-73
2023/09/02 08:11:02;;;;;;;3.20;1.88;;;;;;;20.57;100.00;96221.84;4974280;28;24440;-73
2023/09/02 08:13:29;;;;;;;2.95;1.50;;;;;;;20.81;100.00;96224.75;4990335;28;24495;-73
2023/09/02 08:15:55;;;;;;;3.00;1.63;;;;;;;21.00;100.00;96221.16;4992380;28;24808;-74
2023/09/02 08:18:22;;;;;;;2.33;1.42;;;;;;;21.21;100.00;96220.84;4992192;28;24433;-73
2023/09/02 08:20:49;;;;;;;5.57;1.90;;;;;;;21.37;100.00;96230.75;4993055;28;24478;-73
2023/09/02 08:23:16;;;;;;;5.83;1.70;;;;;;;21.48;100.00;96226.06;4993294;28;24524;-73
2023/09/02 08:25:42;;;;;;;1.83;1.40;;;;;;;21.85;100.00;96221.56;4993270;28;24448;-73
2023/09/02 08:28:09;;;;;;;3.65;1.75;;;;;;;21.68;100.00;96223.25;4989327;28;25024;-73
2023/09/02 08:30:36;;;;;;;3.92;1.70;;;;;;;21.73;100.00;96220.97;4980896;28;24500;-73
2023/09/02 08:33:04;;;;;;;3.10;1.65;;;;;;;21.92;100.00;96225.22;4984911;28;24452;-73
2023/09/02 08:35:35;;;;;;;3.03;1.60;;;;;;;21.67;100.00;96218.94;4988387;28;24444;-73
2023/09/02 08:38:03;;;;;;;2.33;1.37;;;;;;;21.52;100.00;96223.13;4976224;28;24448;-73
2023/09/02 08:40:29;;;;;;;1.75;1.38;;;;;;;21.44;100.00;96227.34;4973853;28;24448;-73
2023/09/02 08:42:57;;;;;;;4.28;1.50;;;;;;;21.56;100.00;96235.00;4974328;28;24443;-73
2023/09/02 08:45:26;;;;;;;2.85;1.65;;;;;;;21.54;100.00;96224.59;4991357;28;24444;-75
2023/09/02 08:47:59;;;;;;;3.00;1.50;;;;;;;21.72;100.00;96229.84;4992096;28;24468;-73
2023/09/02 08:50:27;;;;;;;2.63;1.45;;;;;;;22.13;100.00;96228.28;4978607;28;24755;-74
2023/09/02 08:52:55;;;;;;;1.92;1.55;;;;;;;22.37;100.00;96224.16;4993049;28;24433;-73
2023/09/02 08:55:23;;;;;;;2.78;1.20;;;;;;;22.41;100.00;96228.97;4992978;28;24444;-74
2023/09/02 08:57:50;;;;;;;2.17;1.50;;;;;;;22.79;100.00;96240.00;4992829;28;24460;-74
2023/09/02 09:00:16;;;;;;;3.08;1.58;;;;;;;22.91;100.00;96240.50;4985028;28;24797;-74
2023/09/02 09:02:44;;;;;;;2.47;1.60;;;;;;;23.22;100.00;96240.78;4973481;28;24434;-73
2023/09/02 09:05:12;;;;;;;1.83;1.33;;;;;;;23.40;100.00;96244.13;4985031;28;24509;-73
2023/09/02 09:07:40;;;;;;;2.45;1.85;;;;;;;23.02;100.00;96242.06;4992405;28;24468;-73
2023/09/02 09:10:10;;;;;;;1.63;1.23;;;;;;;23.46;100.00;96253.19;4976733;28;24999;-73
2023/09/02 09:12:38;;;;;;;2.80;1.50;;;;;;;23.96;100.00;96254.03;4985763;28;24968;-74
2023/09/02 09:15:07;;;;;;;2.20;1.50;;;;;;;24.00;100.00;96244.78;4972460;28;24437;-73
2023/09/02 09:17:33;;;;;;;3.47;1.55;;;;;;;24.14;100.00;96249.38;4980780;28;24437;-73
2023/09/02 09:20:00;;;;;;;2.42;1.30;;;;;;;23.60;100.00;96257.00;4973411;28;24440;-73
2023/09/02 09:22:27;;;;;;;2.08;1.63;;;;;;;23.67;100.00;96258.84;4973371;28;24424;-73
2023/09/02 09:24:54;;;;;;;2.22;1.25;;;;;;;24.27;100.00;96254.13;4973338;28;24418;-74
2023/09/02 09:27:21;;;;;;;2.20;1.30;;;;;;;24.61;100.00;96253.88;4977903;28;25012;-73
2023/09/02 09:29:48;;;;;;;2.13;1.40;;;;;;;24.91;100.00;96254.06;4991476;28;24434;-73
2023/09/02 09:32:18;;;;;;;2.40;1.30;;;;;;;24.52;100.00;96246.97;4990099;28;24437;-74
2023/09/02 09:34:45;;;;;;;1.88;1.40;;;;;;;24.21;100.00;96246.88;4980657;28;24441;-73
2023/09/02 09:37:14;;;;;;;4.38;3.20;;;;;;;24.53;100.00;96241.50;5030840;23;24518;-74
2023/09/02 09:39:42;;;;;;;3.40;1.20;;;;;;;25.15;100.00;96239.91;4991695;28;24556;-76
2023/09/02 09:42:09;;;;;;;1.83;1.20;;;;;;;25.37;100.00;96243.56;4992035;28;24983;-76
2023/09/02 09:44:35;;;;;;;1.80;1.30;;;;;;;25.49;100.00;96244.78;4992000;28;24435;-75
2023/09/02 09:47:09;;;;;;;4.10;1.33;;;;;;;25.11;97.14;96250.03;4991800;28;24468;-75
2023/09/02 09:49:35;;;;;;;6.85;4.20;;;;;;;25.04;98.84;96247.22;4975998;28;24434;-74
2023/09/02 09:52:10;;;;;;;2.03;1.45;;;;;;;25.57;100.00;96244.72;4981642;28;24437;-74
2023/09/02 09:54:38;;;;;;;3.22;1.40;;;;;;;26.01;97.53;96242.22;4973007;28;24489;-74
2023/09/02 09:57:06;;;;;;;1.50;1.10;;;;;;;26.17;95.04;96241.22;4984253;28;25011;-75
2023/09/02 09:59:33;;;;;;;1.85;1.20;;;;;;;26.18;77.05;96242.88;4990364;28;24857;-75
2023/09/02 10:02:00;;;;;;;1.60;1.30;;;;;;;26.43;73.43;96242.59;4986462;28;24437;-75
2023/09/02 10:04:28;;;;;;;2.33;1.40;;;;;;;26.74;75.96;96242.44;4972573;28;24440;-75
2023/09/02 10:06:58;;;;;;;4.47;1.33;;;;;;;26.35;71.92;96246.16;4976889;28;24534;-76
2023/09/02 10:09:25;;;;;;;1.73;1.30;;;;;;;26.46;71.03;96239.63;4976711;28;24857;-75
2023/09/02 10:11:51;;;;;;;5.93;1.50;;;;;;;26.45;76.63;96244.06;4972497;28;24417;-75
2023/09/02 10:14:18;;;;;;;2.35;1.17;;;;;;;26.00;66.72;96242.41;4985403;28;24448;-74
2023/09/02 10:16:46;;;;;;;2.27;1.33;;;;;;;25.79;68.62;96246.56;4989519;28;24437;-75
2023/09/02 10:19:13;;;;;;;3.80;1.10;;;;;;;26.28;68.26;96243.41;4983684;28;25043;-76
2023/09/02 10:21:42;;;;;;;2.15;1.17;;;;;;;26.47;67.34;96231.44;4976169;28;24433;-76
2023/09/02 10:24:10;;;;;;;2.40;1.40;;;;;;;26.56;63.76;96237.50;4979262;28;24429;-75
2023/09/02 10:26:45;;;;;;;1.93;1.27;;;;;;;26.25;62.36;96235.00;4975988;28;24441;-75
2023/09/02 10:29:14;;;;;;;1.88;1.23;;;;;;;26.37;61.71;96243.34;4972165;28;24441;-76
2023/09/02 10:31:42;;;;;;;4.20;1.58;;;;;;;26.50;63.03;96231.09;4974101;28;24894;-74
2023/09/02 10:34:15;;;;;;;1.88;1.00;;;;;;;26.47;66.52;96239.41;4978712;28;24529;-75
2023/09/02 10:36:48;;;;;;;1.55;1.30;;;;;;;26.48;62.56;96240.25;4980224;28;24483;-75
2023/09/02 10:39:26;;;;;;;1.60;1.08;;;;;;;26.83;63.69;96237.84;4991029;28;24944;-75
2023/09/02 10:41:55;;;;;;;1.02;0.90;;;;;;;26.90;59.25;96236.06;4991259;28;24963;-75
2023/09/02 10:44:24;;;;;;;1.38;0.90;;;;;;;26.68;60.10;96238.69;4991513;28;24414;-75
2023/09/02 10:46:51;;;;;;;2.10;1.17;;;;;;;26.97;65.97;96235.13;4991623;28;24836;-75
2023/09/02 10:49:18;;;;;;;1.20;1.05;;;;;;;27.29;65.03;96232.22;4991234;28;24424;-74
2023/09/02 10:51:47;;;;;;;1.50;1.00;;;;;;;27.09;67.29;96238.13;4991517;28;24416;-75
2023/09/02 10:54:13;;;;;;;1.37;1.00;;;;;;;26.74;64.21;96232.63;4991704;28;24420;-74
2023/09/02 10:56:40;;;;;;;1.40;1.00;;;;;;;27.03;69.08;96237.06;4991504;28;24428;-74
2023/09/02 10:59:08;;;;;;;2.58;1.40;;;;;;;27.11;66.96;96236.16;4990991;28;24432;-74
2023/09/02 11:01:42;;;;;;;2.83;1.23;;;;;;;26.60;64.35;96227.34;4991541;28;24457;-74
2023/09/02 11:04:09;;;;;;;1.27;1.15;;;;;;;26.37;64.64;96222.09;4991143;28;24479;-74
2023/09/02 11:06:35;;;;;;;1.70;1.10;;;;;;;26.19;64.68;96225.13;4991624;28;24421;-74
2023/09/02 11:09:04;;;;;;;2.65;1.10;;;;;;;25.79;67.80;96221.88;4991201;28;24424;-74
2023/09/02 11:12:08;;;;;;;1.45;1.15;;;;;;;26.02;70.16;96221.78;4991602;28;24417;-75
2023/09/02 11:14:34;;;;;;;3.03;1.60;;;;;;;26.24;73.42;96220.91;4991411;28;24476;-74
2023/09/02 11:17:28;;;;;;;5.63;1.38;;;;;;;26.48;68.91;96214.53;4991242;28;24436;-75
2023/09/02 11:19:59;;;;;;;2.30;1.40;;;;;;;26.38;64.38;96216.59;4990775;28;24971;-74
2023/09/02 11:22:51;;;;;;;7.28;1.27;;;;;;;26.15;73.53;96211.38;4991016;28;25135;-72
2023/09/02 11:25:30;;;;;;;2.05;1.30;;;;;;;26.12;70.55;96213.59;4990724;28;24425;-72
2023/09/02 11:27:58;;;;;;;1.63;1.17;;;;;;;25.97;78.67;96217.03;4990683;28;24586;-72
2023/09/02 11:30:25;;;;;;;1.70;1.50;;;;;;;25.49;69.80;96223.59;4990501;28;24499;-73